createdAt,value
2022-08-07T00:00:02.820Z,15.38
2022-08-07T00:02:44.267Z,15.29
2022-08-07T00:05:13.966Z,15.29
2022-08-07T00:07:41.874Z,15.28
2022-08-07T00:10:26.961Z,15.26
2022-08-07T00:13:01.186Z,15.24
2022-08-07T00:15:38.606Z,15.21
2022-08-07T00:18:19.308Z,15.18
2022-08-07T00:20:49.185Z,15.15
2022-08-07T00:23:17.403Z,15.11
2022-08-07T00:25:59.236Z,15.07
2022-08-07T00:28:33.582Z,15.00
2022-08-07T00:31:06.278Z,14.93
2022-08-07T00:33:41.727Z,14.94
2022-08-07T00:36:10.970Z,14.91
2022-08-07T00:38:40.221Z,14.92
2022-08-07T00:41:14.997Z,14.89
2022-08-07T00:44:00.351Z,14.81
2022-08-07T00:46:30.196Z,14.78
2022-08-07T00:49:02.172Z,14.78
2022-08-07T00:51:58.566Z,14.70
2022-08-07T00:54:19.805Z,14.71
2022-08-07T00:56:50.156Z,14.71
2022-08-07T00:59:20.244Z,14.71
2022-08-07T01:02:08.814Z,14.69
2022-08-07T01:04:43.262Z,14.67
2022-08-07T01:07:13.258Z,14.67
2022-08-07T01:10:04.278Z,14.63
2022-08-07T01:12:31.464Z,14.62
2022-08-07T01:15:03.915Z,14.59
2022-08-07T01:17:33.771Z,14.56
2022-08-07T01:20:07.915Z,14.51
2022-08-07T01:22:46.569Z,14.48
2022-08-07T01:25:53.945Z,14.46
2022-08-07T01:28:11.257Z,14.38
2022-08-07T01:30:41.008Z,14.38
2022-08-07T01:33:11.575Z,14.38
2022-08-07T01:35:54.443Z,14.27
2022-08-07T01:38:29.265Z,14.21
2022-08-07T01:41:05.383Z,14.26
2022-08-07T01:43:38.488Z,14.27
2022-08-07T01:46:08.490Z,14.25
2022-08-07T01:48:46.787Z,14.23
2022-08-07T01:52:04.299Z,14.26
2022-08-07T01:54:36.526Z,14.19
2022-08-07T01:57:08.843Z,14.13
2022-08-07T01:59:55.993Z,14.12
2022-08-07T02:03:11.680Z,14.09
2022-08-07T02:05:43.080Z,14.03
2022-08-07T02:08:20.337Z,14.00
2022-08-07T02:10:58.540Z,13.98
2022-08-07T02:13:57.629Z,13.96
2022-08-07T02:16:28.620Z,13.93
2022-08-07T02:19:05.669Z,13.77
2022-08-07T02:21:55.989Z,13.83
2022-08-07T02:24:26.311Z,13.81
2022-08-07T02:27:02.555Z,13.80
2022-08-07T02:29:34.314Z,13.80
2022-08-07T02:32:06.394Z,13.82
2022-08-07T02:34:48.903Z,13.80
2022-08-07T02:37:23.031Z,13.78
2022-08-07T02:40:02.167Z,13.75
2022-08-07T02:42:43.913Z,13.71
2022-08-07T02:45:58.612Z,13.71
2022-08-07T02:48:03.789Z,13.70
2022-08-07T02:50:42.025Z,13.67
2022-08-07T02:53:12.665Z,13.68
2022-08-07T02:56:03.082Z,13.64
2022-08-07T02:58:39.885Z,13.60
2022-08-07T03:01:19.067Z,13.58
2022-08-07T03:04:07.130Z,13.54
2022-08-07T03:06:37.495Z,13.60
2022-08-07T03:09:11.289Z,13.58
2022-08-07T03:11:52.489Z,13.59
2022-08-07T03:14:30.782Z,13.52
2022-08-07T03:16:59.162Z,13.51
2022-08-07T03:19:29.092Z,13.48
2022-08-07T03:22:07.005Z,13.46
2022-08-07T03:24:36.750Z,13.45
2022-08-07T03:27:08.969Z,13.38
2022-08-07T03:29:51.535Z,13.35
2022-08-07T03:32:26.994Z,13.34
2022-08-07T03:35:17.867Z,13.33
2022-08-07T03:37:55.153Z,13.33
2022-08-07T03:40:27.500Z,13.32
2022-08-07T03:43:01.618Z,13.30
2022-08-07T03:45:35.276Z,13.27
2022-08-07T03:48:13.633Z,13.24
2022-08-07T03:50:52.062Z,13.18
2022-08-07T03:54:01.903Z,13.06
2022-08-07T03:56:32.461Z,13.09
2022-08-07T03:59:08.745Z,13.11
2022-08-07T04:01:45.459Z,13.04
2022-08-07T04:04:17.744Z,13.08
2022-08-07T04:06:50.886Z,13.09
2022-08-07T04:09:23.309Z,13.07
2022-08-07T04:12:27.295Z,13.08
2022-08-07T04:14:46.149Z,13.05
2022-08-07T04:17:21.488Z,12.91
2022-08-07T04:19:57.358Z,13.00
2022-08-07T04:22:30.010Z,13.04
2022-08-07T04:25:11.953Z,13.07
2022-08-07T04:27:44.424Z,13.15
2022-08-07T04:30:35.703Z,13.15
2022-08-07T04:33:17.615Z,13.17
2022-08-07T04:35:51.280Z,13.12
2022-08-07T04:38:25.983Z,13.12
2022-08-07T04:40:56.706Z,13.22
2022-08-07T04:44:09.982Z,13.29
2022-08-07T04:46:51.318Z,13.31
2022-08-07T04:49:40.772Z,13.40
2022-08-07T04:52:19.636Z,13.45
2022-08-07T04:55:00.908Z,13.49
2022-08-07T04:58:15.551Z,13.58
2022-08-07T05:00:43.997Z,13.65
2022-08-07T05:04:00.085Z,13.71
2022-08-07T05:06:19.603Z,13.75
2022-08-07T05:09:02.171Z,13.81
2022-08-07T05:11:58.109Z,13.87
2022-08-07T05:14:56.531Z,13.92
2022-08-07T05:17:51.928Z,13.97
2022-08-07T05:20:24.956Z,14.02
2022-08-07T05:23:02.627Z,14.07
2022-08-07T05:25:54.547Z,14.05
2022-08-07T05:28:26.855Z,14.07
2022-08-07T05:30:58.207Z,14.12
2022-08-07T05:33:35.547Z,14.17
2022-08-07T05:36:12.036Z,14.19
2022-08-07T05:39:01.077Z,14.29
2022-08-07T05:42:02.636Z,14.34
2022-08-07T05:44:29.545Z,14.48
2022-08-07T05:47:01.773Z,14.55
2022-08-07T05:49:49.895Z,14.52
2022-08-07T05:52:20.606Z,14.59
2022-08-07T05:55:01.850Z,14.66
2022-08-07T05:57:42.414Z,14.69
2022-08-07T06:00:15.971Z,14.81
2022-08-07T06:02:56.630Z,14.87
2022-08-07T06:05:28.392Z,14.90
2022-08-07T06:08:30.376Z,14.94
2022-08-07T06:10:54.854Z,15.03
2022-08-07T06:14:10.444Z,15.07
2022-08-07T06:16:14.514Z,15.14
2022-08-07T06:18:51.829Z,15.18
2022-08-07T06:22:16.021Z,15.27
2022-08-07T06:24:52.476Z,15.31
2022-08-07T06:27:04.719Z,15.43
2022-08-07T06:29:35.158Z,15.51
2022-08-07T06:32:08.249Z,15.56
2022-08-07T06:34:36.282Z,15.65
2022-08-07T06:37:09.169Z,15.71
2022-08-07T06:40:13.107Z,15.75
2022-08-07T06:42:37.256Z,15.81
2022-08-07T06:45:25.940Z,15.90
2022-08-07T06:47:59.619Z,15.96
2022-08-07T06:50:43.319Z,16.03
2022-08-07T06:53:49.111Z,16.11
2022-08-07T06:56:15.244Z,16.19
2022-08-07T07:00:12.663Z,16.30
2022-08-07T07:01:48.803Z,16.37
2022-08-07T07:04:28.656Z,16.39
2022-08-07T07:07:10.655Z,16.54
2022-08-07T07:09:52.051Z,16.64
2022-08-07T07:12:48.456Z,16.72
2022-08-07T07:15:32.531Z,16.77
2022-08-07T07:18:13.032Z,16.85
2022-08-07T07:20:47.318Z,16.89
2022-08-07T07:24:08.869Z,17.01
2022-08-07T07:26:34.227Z,17.01
2022-08-07T07:29:39.904Z,17.12
2022-08-07T07:31:56.391Z,17.21
2022-08-07T07:34:30.924Z,17.30
2022-08-07T07:37:14.691Z,17.33
2022-08-07T07:39:55.388Z,17.38
2022-08-07T07:42:32.813Z,17.45
2022-08-07T07:45:03.217Z,17.50
2022-08-07T07:47:42.813Z,17.59
2022-08-07T07:50:33.399Z,17.66
2022-08-07T07:53:20.296Z,17.70
2022-08-07T07:55:57.870Z,17.77
2022-08-07T07:58:40.353Z,17.82
2022-08-07T08:02:03.205Z,17.96
2022-08-07T08:04:09.665Z,18.03
2022-08-07T08:06:50.711Z,18.03
2022-08-07T08:09:22.769Z,18.07
2022-08-07T08:12:02.656Z,18.10
2022-08-07T08:14:34.351Z,18.16
2022-08-07T08:17:56.285Z,18.27
2022-08-07T08:20:17.174Z,18.31
2022-08-07T08:23:08.415Z,18.42
2022-08-07T08:25:58.241Z,18.53
2022-08-07T08:28:38.294Z,18.60
2022-08-07T08:31:15.749Z,18.70
2022-08-07T08:33:49.918Z,18.75
2022-08-07T08:36:29.664Z,18.83
2022-08-07T08:39:01.942Z,18.94
2022-08-07T08:41:57.328Z,19.03
2022-08-07T08:44:31.475Z,19.15
2022-08-07T08:47:09.915Z,19.24
2022-08-07T08:50:02.400Z,19.24
2022-08-07T08:52:40.974Z,19.29
2022-08-07T08:55:54.414Z,19.38
2022-08-07T08:58:28.495Z,19.40
2022-08-07T09:01:15.928Z,19.55
2022-08-07T09:03:56.736Z,19.74
2022-08-07T09:06:49.064Z,19.72
2022-08-07T09:09:36.860Z,19.77
2022-08-07T09:12:20.038Z,19.88
2022-08-07T09:16:23.131Z,20.01
2022-08-07T09:18:09.949Z,20.11
2022-08-07T09:20:57.813Z,20.19
2022-08-07T09:24:32.305Z,20.26
2022-08-07T09:26:32.530Z,20.33
2022-08-07T09:30:01.722Z,20.44
2022-08-07T09:32:03.706Z,20.51
2022-08-07T09:34:56.132Z,20.56
2022-08-07T09:37:48.216Z,20.39
2022-08-07T09:40:29.605Z,20.62
2022-08-07T09:43:08.900Z,20.62
2022-08-07T09:47:52.606Z,20.70
2022-08-07T09:49:02.245Z,20.82
2022-08-07T09:52:09.852Z,20.97
2022-08-07T09:54:40.183Z,21.03
2022-08-07T09:57:52.455Z,21.31
2022-08-07T10:00:29.766Z,21.62
2022-08-07T10:04:05.724Z,21.73
2022-08-07T10:07:25.799Z,21.85
2022-08-07T10:10:11.871Z,21.67
2022-08-07T10:13:54.961Z,21.56
2022-08-07T10:16:19.088Z,21.43
2022-08-07T10:19:11.563Z,21.35
2022-08-07T10:22:14.137Z,21.22
2022-08-07T10:24:52.057Z,21.23
2022-08-07T10:27:55.992Z,21.25
2022-08-07T10:30:33.462Z,21.28
2022-08-07T10:34:05.995Z,21.08
2022-08-07T10:36:37.595Z,20.93
2022-08-07T10:39:20.041Z,21.05
2022-08-07T10:42:09.731Z,21.14
2022-08-07T10:44:57.747Z,21.30
2022-08-07T10:47:52.931Z,21.43
2022-08-07T10:50:30.553Z,21.54
2022-08-07T10:53:08.261Z,21.62
2022-08-07T10:55:45.061Z,21.71
2022-08-07T10:58:36.594Z,21.78
2022-08-07T11:01:35.830Z,21.86
2022-08-07T11:04:34.513Z,21.89
2022-08-07T11:07:56.338Z,22.12
2022-08-07T11:10:09.019Z,22.44
2022-08-07T11:12:45.429Z,22.56
2022-08-07T11:15:31.638Z,22.67
2022-08-07T11:18:07.104Z,22.88
2022-08-07T11:20:47.360Z,23.03
2022-08-07T11:23:30.874Z,23.39
2022-08-07T11:26:13.334Z,23.54
2022-08-07T11:28:53.654Z,23.15
2022-08-07T11:31:35.567Z,23.15
2022-08-07T11:34:12.066Z,23.05
2022-08-07T11:36:56.390Z,22.72
2022-08-07T11:40:00.396Z,22.66
2022-08-07T11:42:40.835Z,22.36
2022-08-07T11:45:35.445Z,22.11
2022-08-07T11:48:30.122Z,22.08
2022-08-07T11:51:40.723Z,22.32
2022-08-07T11:54:25.426Z,22.32
2022-08-07T11:57:12.848Z,22.30
2022-08-07T12:00:11.107Z,22.19
2022-08-07T12:03:41.907Z,22.20
2022-08-07T12:06:44.826Z,22.15
2022-08-07T12:09:26.979Z,22.15
2022-08-07T12:12:10.725Z,22.31
2022-08-07T12:14:55.613Z,22.40
2022-08-07T12:17:35.720Z,22.51
2022-08-07T12:20:18.549Z,22.64
2022-08-07T12:23:37.228Z,22.89
2022-08-07T12:26:28.610Z,23.04
2022-08-07T12:29:07.209Z,23.41
2022-08-07T12:32:01.972Z,23.59
2022-08-07T12:34:31.076Z,23.72
2022-08-07T12:37:01.533Z,23.77
2022-08-07T12:39:44.074Z,23.90
2022-08-07T12:42:27.858Z,23.77
2022-08-07T12:45:00.032Z,23.73
2022-08-07T12:47:39.822Z,23.86
2022-08-07T12:50:34.333Z,23.88
2022-08-07T12:53:17.791Z,23.97
2022-08-07T12:56:03.553Z,24.18
2022-08-07T12:58:37.511Z,24.30
2022-08-07T13:01:20.223Z,24.30
2022-08-07T13:04:04.694Z,24.53
2022-08-07T13:06:54.264Z,24.61
2022-08-07T13:10:28.759Z,24.64
2022-08-07T13:12:52.139Z,24.37
2022-08-07T13:15:31.907Z,24.22
2022-08-07T13:18:25.765Z,24.13
2022-08-07T13:21:00.129Z,24.22
2022-08-07T13:24:01.118Z,24.29
2022-08-07T13:26:32.693Z,24.23
2022-08-07T13:29:10.937Z,24.40
2022-08-07T13:31:57.879Z,24.50
2022-08-07T13:34:39.150Z,24.51
2022-08-07T13:37:20.746Z,24.53
2022-08-07T13:40:35.389Z,24.59
2022-08-07T13:42:53.551Z,24.62
2022-08-07T13:46:10.764Z,24.59
2022-08-07T13:48:27.615Z,24.39
2022-08-07T13:51:27.064Z,24.31
2022-08-07T13:54:01.677Z,24.00
2022-08-07T13:56:36.294Z,23.98
2022-08-07T13:59:20.616Z,23.98
2022-08-07T14:01:59.274Z,23.95
2022-08-07T14:04:38.039Z,23.68
2022-08-07T14:07:18.457Z,23.41
2022-08-07T14:10:02.249Z,23.32
2022-08-07T14:12:49.501Z,23.39
2022-08-07T14:15:32.151Z,23.44
2022-08-07T14:18:23.970Z,23.34
2022-08-07T14:21:08.497Z,23.47
2022-08-07T14:24:00.098Z,23.92
2022-08-07T14:26:36.932Z,24.04
2022-08-07T14:30:07.229Z,24.27
2022-08-07T14:32:01.269Z,24.22
2022-08-07T14:34:32.007Z,23.89
2022-08-07T14:37:03.615Z,23.73
2022-08-07T14:40:17.990Z,23.80
2022-08-07T14:42:32.361Z,23.95
2022-08-07T14:45:21.413Z,24.04
2022-08-07T14:47:53.106Z,24.00
2022-08-07T14:50:29.250Z,23.99
2022-08-07T14:53:09.684Z,24.01
2022-08-07T14:55:55.585Z,24.10
2022-08-07T14:58:33.282Z,24.49
2022-08-07T15:01:21.446Z,24.82
2022-08-07T15:03:51.663Z,24.95
2022-08-07T15:06:26.473Z,24.83
2022-08-07T15:08:55.749Z,25.02
2022-08-07T15:13:06.526Z,25.52
2022-08-07T15:14:21.766Z,25.67
2022-08-07T15:16:55.832Z,25.38
2022-08-07T15:20:31.255Z,25.62
2022-08-07T15:22:31.325Z,26.16
2022-08-07T15:25:16.925Z,27.11
2022-08-07T15:30:59.549Z,28.05
2022-08-07T15:33:36.277Z,28.52
2022-08-07T15:36:07.771Z,28.85
2022-08-07T15:38:59.196Z,28.71
2022-08-07T15:47:16.876Z,28.61
2022-08-07T15:50:05.090Z,28.78
2022-08-07T15:52:37.416Z,28.46
2022-08-07T15:55:11.311Z,28.47
2022-08-07T15:57:48.697Z,28.26
2022-08-07T16:00:32.004Z,28.72
2022-08-07T16:03:21.353Z,29.27
2022-08-07T16:05:58.632Z,29.16
2022-08-07T16:08:37.477Z,29.55
2022-08-07T16:11:28.738Z,29.39
2022-08-07T16:14:09.005Z,29.99
2022-08-07T16:16:56.997Z,30.07
2022-08-07T16:19:43.138Z,29.62
2022-08-07T16:22:55.566Z,29.74
2022-08-07T16:25:54.187Z,30.02
2022-08-07T16:30:09.137Z,30.07
2022-08-07T16:31:50.950Z,30.76
2022-08-07T16:34:25.505Z,31.14
2022-08-07T16:38:04.730Z,30.67
2022-08-07T16:40:57.239Z,30.39
2022-08-07T16:44:02.736Z,30.42
2022-08-07T16:47:12.473Z,31.20
2022-08-07T16:50:36.302Z,31.60
2022-08-07T16:54:01.942Z,31.46
2022-08-07T16:56:49.985Z,31.54
2022-08-07T16:59:46.365Z,31.80
2022-08-07T17:02:53.158Z,32.46
2022-08-07T17:06:02.284Z,32.43
2022-08-07T17:09:09.606Z,32.64
2022-08-07T17:12:02.016Z,33.10
2022-08-07T17:14:33.411Z,33.06
2022-08-07T17:17:05.845Z,32.78
2022-08-07T17:20:03.539Z,32.95
2022-08-07T17:22:38.149Z,32.79
2022-08-07T17:25:15.649Z,33.00
2022-08-07T17:27:58.794Z,32.95
2022-08-07T17:30:32.100Z,32.45
2022-08-07T17:34:09.370Z,32.23
2022-08-07T17:36:03.957Z,32.44
2022-08-07T17:38:40.688Z,32.47
2022-08-07T17:42:01.836Z,32.49
2022-08-07T17:44:15.593Z,31.87
2022-08-07T17:47:05.516Z,30.96
2022-08-07T17:49:43.099Z,30.01
2022-08-07T17:52:30.624Z,29.08
2022-08-07T17:55:08.881Z,28.60
2022-08-07T17:57:59.247Z,28.10
2022-08-07T18:00:34.370Z,27.69
2022-08-07T18:03:21.717Z,27.27
2022-08-07T18:06:02.172Z,26.98
2022-08-07T18:08:35.035Z,26.57
2022-08-07T18:12:07.371Z,25.84
2022-08-07T18:14:05.737Z,25.34
2022-08-07T18:16:37.753Z,25.40
2022-08-07T18:21:02.364Z,25.40
2022-08-07T18:22:31.715Z,25.29
2022-08-07T18:25:23.791Z,25.13
2022-08-07T18:28:34.229Z,25.00
2022-08-07T18:31:08.427Z,24.81
2022-08-07T18:34:40.729Z,24.66
2022-08-07T18:37:09.438Z,24.56
2022-08-07T18:40:08.709Z,24.45
2022-08-07T18:42:45.558Z,24.33
2022-08-07T18:45:42.966Z,24.21
2022-08-07T18:49:03.677Z,24.11
2022-08-07T18:51:14.925Z,24.01
2022-08-07T18:54:30.715Z,23.91
2022-08-07T18:57:30.295Z,23.76
2022-08-07T19:00:32.890Z,23.59
2022-08-07T19:03:04.260Z,23.44
2022-08-07T19:06:02.274Z,23.34
2022-08-07T19:08:42.240Z,23.23
2022-08-07T19:11:36.394Z,23.11
2022-08-07T19:14:16.816Z,22.93
2022-08-07T19:17:06.810Z,22.81
2022-08-07T19:19:54.630Z,22.72
2022-08-07T19:22:31.137Z,22.66
2022-08-07T19:25:06.287Z,22.55
2022-08-07T19:28:58.311Z,22.45
2022-08-07T19:30:57.666Z,22.21
2022-08-07T19:33:33.538Z,22.23
2022-08-07T19:36:08.913Z,22.15
2022-08-07T19:38:52.510Z,22.14
2022-08-07T19:41:39.351Z,22.05
2022-08-07T19:44:21.994Z,21.97
2022-08-07T19:46:58.059Z,21.96
2022-08-07T19:49:58.620Z,21.92
2022-08-07T19:52:25.762Z,21.84
2022-08-07T19:54:57.415Z,21.74
2022-08-07T19:58:00.973Z,21.68
2022-08-07T20:00:29.069Z,21.58
2022-08-07T20:03:02.910Z,21.50
2022-08-07T20:05:47.501Z,21.46
2022-08-07T20:08:28.787Z,21.36
2022-08-07T20:11:03.866Z,21.30
2022-08-07T20:13:45.797Z,21.21
2022-08-07T20:16:35.670Z,21.07
2022-08-07T20:19:10.385Z,21.04
2022-08-07T20:21:41.999Z,20.95
2022-08-07T20:26:50.383Z,20.85
2022-08-07T20:29:47.631Z,20.64
2022-08-07T20:32:23.065Z,20.60
2022-08-07T20:34:57.043Z,20.68
2022-08-07T20:37:33.925Z,20.51
2022-08-07T20:40:32.666Z,20.51
2022-08-07T20:42:57.880Z,20.39
2022-08-07T20:45:33.053Z,20.39
2022-08-07T20:48:28.977Z,20.40
2022-08-07T20:51:01.403Z,20.39
2022-08-07T20:54:03.491Z,20.31
2022-08-07T20:56:25.930Z,20.26
2022-08-07T20:58:58.540Z,20.23
2022-08-07T21:01:36.313Z,20.09
2022-08-07T21:04:23.434Z,20.10
2022-08-07T21:06:56.889Z,20.05
2022-08-07T21:09:51.857Z,20.02
2022-08-07T21:12:26.021Z,19.92
2022-08-07T21:15:00.945Z,19.87
2022-08-07T21:18:02.192Z,19.82
2022-08-07T21:20:30.193Z,19.78
2022-08-07T21:23:07.592Z,19.65
2022-08-07T21:25:56.159Z,19.65
2022-08-07T21:28:48.112Z,19.53
2022-08-07T21:31:49.228Z,19.50
2022-08-07T21:34:22.280Z,19.51
2022-08-07T21:37:05.064Z,19.47
2022-08-07T21:39:46.950Z,19.41
2022-08-07T21:42:42.623Z,19.31
2022-08-07T21:46:09.794Z,19.29
2022-08-07T21:48:28.262Z,19.24
2022-08-07T21:51:20.463Z,19.21
2022-08-07T21:53:56.042Z,19.21
2022-08-07T21:56:48.310Z,19.13
2022-08-07T22:00:03.118Z,19.09
2022-08-07T22:02:28.522Z,19.01
2022-08-07T22:05:02.082Z,18.99
2022-08-07T22:07:42.750Z,18.94
2022-08-07T22:10:24.720Z,18.95
2022-08-07T22:12:56.561Z,18.89
2022-08-07T22:16:44.357Z,18.81
2022-08-07T22:18:24.736Z,18.78
2022-08-07T22:20:57.824Z,18.76
2022-08-07T22:23:40.398Z,18.71
2022-08-07T22:26:18.885Z,18.67
2022-08-07T22:28:53.968Z,18.66
2022-08-07T22:31:56.032Z,18.61
2022-08-07T22:34:29.045Z,18.52
2022-08-07T22:37:12.471Z,18.46
2022-08-07T22:39:51.827Z,18.44
2022-08-07T22:42:26.052Z,18.43
2022-08-07T22:45:02.452Z,18.38
2022-08-07T22:48:13.642Z,18.28
2022-08-07T22:51:36.312Z,18.23
2022-08-07T22:54:22.419Z,18.25
2022-08-07T22:57:03.444Z,18.19
2022-08-07T22:59:50.704Z,18.15
2022-08-07T23:03:03.713Z,18.12
2022-08-07T23:06:08.269Z,18.09
2022-08-07T23:08:58.602Z,18.06
2022-08-07T23:11:59.125Z,18.00
2022-08-07T23:14:48.471Z,17.99
2022-08-07T23:17:50.453Z,17.78
2022-08-07T23:20:51.121Z,17.86
2022-08-07T23:24:05.085Z,17.83
2022-08-07T23:26:26.116Z,17.82
2022-08-07T23:29:43.975Z,17.81
2022-08-07T23:34:19.879Z,17.70
2022-08-07T23:35:16.700Z,17.68
2022-08-07T23:38:01.856Z,17.70
2022-08-07T23:40:36.958Z,17.65
2022-08-07T23:43:42.040Z,17.56
2022-08-07T23:46:28.681Z,17.48
2022-08-07T23:49:16.437Z,17.46
2022-08-07T23:53:05.707Z,17.41
2022-08-07T23:54:46.013Z,17.37
2022-08-07T23:57:22.369Z,17.39
